createdAt,value
2018-06-29T00:00:50.722Z,0.80
2018-06-29T00:03:20.413Z,0.80
2018-06-29T00:05:49.587Z,1.17
2018-06-29T00:08:18.766Z,1.10
2018-06-29T00:10:47.949Z,1.00
2018-06-29T00:13:17.171Z,0.90
2018-06-29T00:15:46.606Z,1.20
2018-06-29T00:18:15.831Z,1.40
2018-06-29T00:20:45.043Z,0.97
2018-06-29T00:23:14.285Z,1.00
2018-06-29T00:25:43.456Z,1.00
2018-06-29T00:28:12.656Z,1.23
2018-06-29T00:30:41.938Z,1.07
2018-06-29T00:33:11.138Z,1.00
2018-06-29T00:35:40.354Z,0.80
2018-06-29T00:38:09.558Z,0.80
2018-06-29T00:40:39.035Z,1.00
2018-06-29T00:43:08.334Z,0.87
2018-06-29T00:45:37.638Z,0.90
2018-06-29T00:48:06.729Z,1.03
2018-06-29T00:50:35.949Z,1.17
2018-06-29T00:53:05.395Z,0.90
2018-06-29T00:55:34.607Z,1.00
2018-06-29T00:58:03.818Z,1.20
2018-06-29T01:00:33.558Z,1.10
2018-06-29T01:03:02.759Z,0.93
2018-06-29T01:05:31.938Z,0.97
2018-06-29T01:08:01.602Z,0.87
2018-06-29T01:10:30.811Z,1.10
2018-06-29T01:13:00.021Z,1.23
2018-06-29T01:15:29.251Z,1.30
2018-06-29T01:17:58.421Z,1.00
2018-06-29T01:20:27.671Z,0.90
2018-06-29T01:22:56.968Z,0.80
2018-06-29T01:25:26.186Z,0.90
2018-06-29T01:27:55.374Z,1.00
2018-06-29T01:30:24.623Z,1.10
2018-06-29T01:32:53.834Z,0.93
2018-06-29T01:35:23.179Z,1.23
2018-06-29T01:37:52.430Z,0.83
2018-06-29T01:40:21.700Z,1.03
2018-06-29T01:42:50.906Z,0.87
2018-06-29T01:45:20.190Z,0.77
2018-06-29T01:47:49.410Z,0.90
2018-06-29T01:50:18.590Z,0.97
2018-06-29T01:52:47.774Z,0.97
2018-06-29T01:55:16.913Z,1.00
2018-06-29T01:57:46.074Z,1.00
2018-06-29T02:00:15.275Z,0.80
2018-06-29T02:02:44.404Z,1.00
2018-06-29T02:05:13.641Z,1.00
2018-06-29T02:07:42.854Z,0.97
2018-06-29T02:10:12.046Z,0.90
2018-06-29T02:12:41.299Z,1.10
2018-06-29T02:15:10.475Z,1.00
2018-06-29T02:17:39.784Z,0.90
2018-06-29T02:20:08.953Z,1.00
2018-06-29T02:22:38.211Z,0.90
2018-06-29T02:25:07.506Z,0.80
2018-06-29T02:27:36.731Z,0.90
2018-06-29T02:30:06.536Z,1.00
2018-06-29T02:32:35.890Z,1.03
2018-06-29T02:35:05.206Z,1.00
2018-06-29T02:37:34.548Z,1.10
2018-06-29T02:40:03.946Z,1.10
2018-06-29T02:42:33.135Z,1.00
2018-06-29T02:45:02.343Z,1.13
2018-06-29T02:47:31.492Z,1.23
2018-06-29T02:50:00.685Z,1.47
2018-06-29T02:52:30.093Z,1.53
2018-06-29T02:54:59.254Z,1.50
2018-06-29T02:57:28.386Z,1.30
2018-06-29T02:59:57.663Z,1.20
2018-06-29T03:02:26.946Z,1.40
2018-06-29T03:04:56.181Z,0.90
2018-06-29T03:07:25.414Z,1.23
2018-06-29T03:09:54.774Z,1.30
2018-06-29T03:12:23.994Z,1.43
2018-06-29T03:14:53.615Z,1.30
2018-06-29T03:17:22.806Z,1.40
2018-06-29T03:19:52.038Z,1.10
2018-06-29T03:22:21.206Z,1.30
2018-06-29T03:24:50.450Z,1.60
2018-06-29T03:27:19.618Z,1.30
2018-06-29T03:29:48.814Z,1.20
2018-06-29T03:32:18.189Z,1.10
2018-06-29T03:34:47.407Z,1.43
2018-06-29T03:37:16.806Z,1.27
2018-06-29T03:39:46.445Z,1.13
2018-06-29T03:42:15.572Z,1.30
2018-06-29T03:44:44.798Z,1.67
2018-06-29T03:47:14.035Z,1.30
2018-06-29T03:49:43.287Z,1.33
2018-06-29T03:52:12.499Z,1.57
2018-06-29T03:54:42.002Z,1.57
2018-06-29T03:57:11.261Z,1.40
2018-06-29T03:59:40.443Z,1.63
2018-06-29T04:02:09.754Z,2.03
2018-06-29T04:04:39.446Z,1.90
2018-06-29T04:07:08.630Z,1.83
2018-06-29T04:09:37.815Z,1.70
2018-06-29T04:12:07.014Z,1.87
2018-06-29T04:14:36.418Z,1.80
2018-06-29T04:17:05.770Z,1.60
2018-06-29T04:19:35.038Z,1.83
2018-06-29T04:22:04.282Z,1.50
2018-06-29T04:24:33.485Z,1.70
2018-06-29T04:27:02.695Z,2.10
2018-06-29T04:29:31.931Z,1.90
2018-06-29T04:32:01.146Z,1.93
2018-06-29T04:34:30.282Z,2.07
2018-06-29T04:36:59.425Z,1.90
2018-06-29T04:39:28.846Z,2.53
2018-06-29T04:41:58.025Z,2.40
2018-06-29T04:44:27.218Z,2.83
2018-06-29T04:46:56.589Z,2.67
2018-06-29T04:49:25.917Z,2.77
2018-06-29T04:51:55.084Z,3.00
2018-06-29T04:54:24.394Z,2.90
2018-06-29T04:56:53.602Z,3.00
2018-06-29T04:59:22.850Z,3.33
2018-06-29T05:01:52.154Z,2.63
2018-06-29T05:04:21.322Z,3.43
2018-06-29T05:06:50.507Z,3.30
2018-06-29T05:09:19.714Z,3.20
2018-06-29T05:11:48.850Z,3.30
2018-06-29T05:14:18.214Z,3.00
2018-06-29T05:16:47.403Z,2.50
2018-06-29T05:19:16.660Z,3.23
2018-06-29T05:21:45.938Z,3.03
2018-06-29T05:24:15.155Z,3.40
2018-06-29T05:26:44.427Z,3.63
2018-06-29T05:29:13.638Z,3.00
2018-06-29T05:31:42.819Z,3.23
2018-06-29T05:34:12.214Z,3.27
2018-06-29T05:36:41.430Z,3.20
2018-06-29T05:39:11.190Z,3.70
2018-06-29T05:41:40.406Z,3.30
2018-06-29T05:44:09.691Z,3.30
2018-06-29T05:46:38.898Z,3.30
2018-06-29T05:49:09.677Z,2.97
2018-06-29T05:51:39.019Z,2.83
2018-06-29T05:54:08.218Z,2.97
2018-06-29T05:56:37.445Z,3.07
2018-06-29T05:59:06.727Z,2.93
2018-06-29T06:01:35.943Z,3.17
2018-06-29T06:04:05.157Z,3.03
2018-06-29T06:06:34.727Z,2.73
2018-06-29T06:09:05.935Z,3.00
2018-06-29T06:11:35.298Z,3.27
2018-06-29T06:14:04.609Z,3.03
2018-06-29T06:16:33.770Z,2.90
2018-06-29T06:19:20.087Z,2.67
2018-06-29T06:21:49.286Z,3.20
2018-06-29T06:24:18.542Z,2.83
2018-06-29T06:26:48.050Z,3.10
2018-06-29T06:29:17.190Z,3.10
2018-06-29T06:31:46.418Z,3.20
2018-06-29T06:34:15.612Z,2.83
2018-06-29T06:36:44.974Z,2.83
2018-06-29T06:39:14.160Z,2.40
2018-06-29T06:41:43.597Z,2.70
2018-06-29T06:44:13.082Z,2.83
2018-06-29T06:46:42.250Z,3.00
2018-06-29T06:49:11.446Z,3.15
2018-06-29T06:51:40.663Z,2.60
2018-06-29T06:54:09.895Z,2.37
2018-06-29T06:56:39.327Z,2.60
2018-06-29T06:59:08.634Z,2.30
2018-06-29T07:01:37.824Z,2.50
2018-06-29T07:04:07.030Z,2.40
2018-06-29T07:06:36.399Z,2.17
2018-06-29T07:09:10.282Z,2.17
2018-06-29T07:11:39.461Z,1.93
2018-06-29T07:14:08.691Z,2.03
2018-06-29T07:16:37.981Z,1.80
2018-06-29T07:19:07.689Z,1.73
2018-06-29T07:21:37.346Z,1.97
2018-06-29T07:24:06.807Z,1.83
2018-06-29T07:26:36.690Z,2.23
2018-06-29T07:29:05.998Z,1.80
2018-06-29T07:31:35.438Z,1.70
2018-06-29T07:34:04.726Z,1.73
2018-06-29T07:36:33.935Z,1.40
2018-06-29T07:39:03.145Z,1.83
2018-06-29T07:41:32.503Z,1.47
2018-06-29T07:44:01.756Z,1.63
2018-06-29T07:46:30.963Z,1.57
2018-06-29T07:49:00.649Z,1.53
2018-06-29T07:51:29.839Z,1.50
2018-06-29T07:53:59.074Z,1.47
2018-06-29T07:56:28.430Z,1.50
2018-06-29T07:58:57.598Z,1.30
2018-06-29T08:01:26.824Z,1.20
2018-06-29T08:03:56.082Z,1.30
2018-06-29T08:06:25.198Z,1.23
2018-06-29T08:08:54.467Z,0.97
2018-06-29T08:11:23.694Z,1.20
2018-06-29T08:13:52.915Z,1.30
2018-06-29T08:16:22.182Z,1.03
2018-06-29T08:18:51.342Z,1.10
2018-06-29T08:21:20.624Z,1.00
2018-06-29T08:23:49.794Z,1.20
2018-06-29T08:26:25.954Z,0.90
2018-06-29T08:28:55.251Z,0.90
2018-06-29T08:31:24.626Z,1.00
2018-06-29T08:33:53.841Z,0.80
2018-06-29T08:36:23.143Z,1.00
2018-06-29T08:38:52.319Z,0.73
2018-06-29T08:41:21.683Z,1.13
2018-06-29T08:43:51.083Z,0.97
2018-06-29T08:46:20.391Z,1.00
2018-06-29T08:48:49.602Z,0.80
2018-06-29T08:51:18.757Z,1.20
2018-06-29T08:53:47.966Z,1.00
2018-06-29T08:56:17.551Z,1.20
2018-06-29T08:58:46.901Z,1.27
2018-06-29T09:01:16.114Z,1.10
2018-06-29T09:03:45.293Z,1.53
2018-06-29T09:06:14.491Z,1.13
2018-06-29T09:08:43.823Z,0.93
2018-06-29T09:11:14.146Z,1.00
2018-06-29T09:13:43.372Z,1.33
2018-06-29T09:16:12.655Z,0.90
2018-06-29T09:18:41.866Z,1.03
2018-06-29T09:21:11.107Z,1.30
2018-06-29T09:23:40.476Z,1.70
2018-06-29T09:26:09.627Z,1.37
2018-06-29T09:28:38.794Z,1.30
2018-06-29T09:31:08.067Z,1.30
2018-06-29T09:33:37.288Z,1.23
2018-06-29T09:36:06.495Z,1.53
2018-06-29T09:38:35.923Z,1.50
2018-06-29T09:41:05.097Z,1.50
2018-06-29T09:43:34.286Z,1.50
2018-06-29T09:46:03.622Z,1.20
2018-06-29T09:48:32.890Z,1.43
2018-06-29T09:51:02.110Z,1.30
2018-06-29T09:53:31.291Z,1.10
2018-06-29T09:56:00.889Z,1.60
2018-06-29T09:58:30.046Z,1.50
2018-06-29T10:00:59.284Z,1.40
2018-06-29T10:03:28.554Z,1.53
2018-06-29T10:05:57.802Z,1.40
2018-06-29T10:08:26.942Z,1.50
2018-06-29T10:10:56.424Z,1.20
2018-06-29T10:13:25.626Z,1.57
2018-06-29T10:15:54.815Z,1.50
2018-06-29T10:18:24.039Z,1.13
2018-06-29T10:20:53.259Z,1.30
2018-06-29T10:23:22.434Z,1.20
2018-06-29T10:25:51.594Z,1.20
2018-06-29T10:28:20.808Z,1.10
2018-06-29T10:30:50.019Z,1.47
2018-06-29T10:33:19.242Z,1.20
2018-06-29T10:35:48.592Z,1.30
2018-06-29T10:38:17.774Z,1.20
2018-06-29T10:40:46.979Z,1.27
2018-06-29T10:43:16.294Z,1.00
2018-06-29T10:45:45.505Z,1.00
2018-06-29T10:48:14.926Z,0.90
2018-06-29T10:50:44.116Z,1.00
2018-06-29T10:53:13.423Z,1.07
2018-06-29T10:55:42.754Z,1.10
2018-06-29T10:58:12.058Z,0.90
2018-06-29T11:00:41.370Z,0.70
2018-06-29T11:03:10.550Z,1.00
2018-06-29T11:05:39.776Z,0.93
2018-06-29T11:08:09.376Z,1.00
2018-06-29T11:10:38.543Z,0.70
2018-06-29T11:13:07.727Z,0.80
2018-06-29T11:15:36.937Z,0.87
2018-06-29T11:18:06.222Z,1.07
2018-06-29T11:20:35.907Z,0.80
2018-06-29T11:23:05.114Z,0.87
2018-06-29T11:25:34.375Z,0.70
2018-06-29T11:28:03.632Z,0.90
2018-06-29T11:30:32.943Z,0.90
2018-06-29T11:33:02.127Z,0.70
2018-06-29T11:35:31.402Z,0.83
2018-06-29T11:38:00.594Z,0.80
2018-06-29T11:40:29.835Z,0.90
2018-06-29T11:42:59.425Z,1.03
2018-06-29T11:45:28.639Z,0.87
2018-06-29T11:47:57.871Z,0.67
2018-06-29T11:50:27.070Z,0.80
2018-06-29T11:52:56.260Z,0.60
2018-06-29T11:55:25.885Z,0.97
2018-06-29T11:57:55.106Z,0.70
2018-06-29T12:00:24.255Z,0.80
2018-06-29T12:02:53.539Z,0.70
2018-06-29T12:05:22.786Z,0.70
2018-06-29T12:07:52.370Z,0.90
2018-06-29T12:10:21.584Z,0.80
2018-06-29T12:12:50.865Z,0.90
2018-06-29T12:15:20.154Z,1.10
2018-06-29T12:17:49.579Z,0.90
2018-06-29T12:20:18.890Z,0.87
2018-06-29T12:22:48.096Z,1.00
2018-06-29T12:25:17.279Z,0.90
2018-06-29T12:27:46.673Z,1.07
2018-06-29T12:30:15.846Z,0.80
2018-06-29T12:32:45.174Z,0.90
2018-06-29T12:35:14.379Z,0.80
2018-06-29T12:37:43.615Z,0.90
2018-06-29T12:40:12.787Z,0.77
2018-06-29T12:42:42.015Z,0.90
2018-06-29T12:45:11.203Z,0.93
2018-06-29T12:47:40.790Z,1.00
2018-06-29T12:50:09.962Z,1.10
2018-06-29T12:52:39.178Z,1.17
2018-06-29T12:55:08.419Z,1.10
2018-06-29T12:57:37.796Z,1.00
2018-06-29T13:00:07.591Z,1.10
2018-06-29T13:02:36.834Z,1.37
2018-06-29T13:05:06.290Z,0.93
2018-06-29T13:07:35.506Z,1.03
2018-06-29T13:10:04.691Z,1.00
2018-06-29T13:12:33.907Z,0.93
2018-06-29T13:15:03.214Z,0.90
2018-06-29T13:17:32.428Z,0.90
2018-06-29T13:20:01.590Z,0.90
2018-06-29T13:22:30.854Z,0.93
2018-06-29T13:25:00.147Z,1.10
2018-06-29T13:27:29.338Z,0.80
2018-06-29T13:29:58.611Z,1.13
2018-06-29T13:32:27.866Z,0.90
2018-06-29T13:34:57.104Z,0.97
2018-06-29T13:37:26.417Z,1.10
2018-06-29T13:39:55.658Z,1.00
2018-06-29T13:42:24.829Z,1.30
2018-06-29T13:44:54.206Z,1.00
2018-06-29T13:47:23.424Z,1.10
2018-06-29T13:49:53.059Z,0.90
2018-06-29T13:52:22.256Z,1.77
2018-06-29T13:54:51.542Z,1.30
2018-06-29T13:57:20.724Z,1.40
2018-06-29T13:59:49.955Z,1.23
2018-06-29T14:02:19.118Z,1.27
2018-06-29T14:04:48.435Z,1.67
2018-06-29T14:07:17.574Z,1.50
2018-06-29T14:09:46.781Z,1.57
2018-06-29T14:12:15.989Z,1.70
2018-06-29T14:14:45.397Z,1.63
2018-06-29T14:17:14.635Z,1.70
2018-06-29T14:19:43.895Z,1.70
2018-06-29T14:22:13.109Z,1.73
2018-06-29T14:24:42.279Z,1.70
2018-06-29T14:27:11.423Z,1.80
2018-06-29T14:29:41.086Z,1.50
2018-06-29T14:32:10.281Z,1.70
2018-06-29T14:34:39.555Z,1.70
2018-06-29T14:37:08.787Z,2.10
2018-06-29T14:39:37.986Z,1.80
2018-06-29T14:42:07.164Z,1.87
2018-06-29T14:44:36.758Z,1.60
2018-06-29T14:47:06.076Z,1.80
2018-06-29T14:49:35.367Z,1.80
2018-06-29T14:52:04.586Z,1.93
2018-06-29T14:54:33.807Z,1.63
2018-06-29T14:57:02.991Z,1.77
2018-06-29T14:59:32.230Z,1.70
2018-06-29T15:02:01.726Z,1.70
2018-06-29T15:04:31.015Z,1.97
2018-06-29T15:07:00.250Z,1.80
2018-06-29T15:09:29.459Z,2.10
2018-06-29T15:11:58.797Z,1.70
2018-06-29T15:14:27.974Z,2.03
2018-06-29T15:16:57.124Z,2.07
2018-06-29T15:19:26.358Z,2.00
2018-06-29T15:21:55.662Z,1.87
2018-06-29T15:24:24.838Z,1.93
2018-06-29T15:26:54.302Z,2.20
2018-06-29T15:29:23.530Z,1.80
2018-06-29T15:31:52.946Z,1.60
2018-06-29T15:34:22.146Z,1.80
2018-06-29T15:36:51.322Z,1.97
2018-06-29T15:39:20.638Z,2.03
2018-06-29T15:41:49.870Z,2.07
2018-06-29T15:44:19.278Z,2.00
2018-06-29T15:46:48.610Z,1.80
2018-06-29T15:49:17.773Z,2.17
2018-06-29T15:51:47.043Z,1.83
2018-06-29T15:54:16.198Z,1.90
2018-06-29T15:56:45.398Z,1.90
2018-06-29T15:59:14.651Z,1.73
2018-06-29T16:01:43.786Z,1.70
2018-06-29T16:04:13.031Z,1.90
2018-06-29T16:06:42.500Z,1.70
2018-06-29T16:09:11.758Z,2.10
2018-06-29T16:11:41.010Z,1.73
2018-06-29T16:14:10.302Z,1.90
2018-06-29T16:16:39.547Z,1.73
2018-06-29T16:19:08.759Z,1.70
2018-06-29T16:21:38.055Z,1.60
2018-06-29T16:24:07.379Z,1.60
2018-06-29T16:26:36.574Z,1.60
2018-06-29T16:29:05.838Z,1.57
2018-06-29T16:31:34.983Z,1.37
2018-06-29T16:34:04.246Z,1.50
2018-06-29T16:36:33.446Z,1.50
2018-06-29T16:39:02.750Z,1.57
2018-06-29T16:41:32.254Z,1.50
2018-06-29T16:44:01.486Z,1.50
2018-06-29T16:46:30.622Z,1.43
2018-06-29T16:48:59.855Z,1.50
2018-06-29T16:51:29.030Z,1.57
2018-06-29T16:53:58.203Z,1.63
2018-06-29T16:56:27.522Z,1.90
2018-06-29T16:58:56.806Z,2.20
2018-06-29T17:01:26.019Z,1.90
2018-06-29T17:03:55.647Z,2.13
2018-06-29T17:06:24.827Z,1.50
2018-06-29T17:08:54.093Z,2.10
2018-06-29T17:11:23.504Z,2.50
2018-06-29T17:13:52.750Z,1.70
2018-06-29T17:16:21.939Z,2.07
2018-06-29T17:18:51.284Z,1.70
2018-06-29T17:21:20.331Z,2.23
2018-06-29T17:23:49.698Z,1.93
2018-06-29T17:26:18.947Z,2.07
2018-06-29T17:28:48.122Z,1.87
2018-06-29T17:31:17.634Z,2.53
2018-06-29T17:33:47.204Z,2.07
2018-06-29T17:36:16.243Z,2.00
2018-06-29T17:38:45.646Z,2.53
2018-06-29T17:41:14.951Z,2.40
2018-06-29T17:43:44.115Z,2.40
2018-06-29T17:46:13.600Z,2.40
2018-06-29T17:48:42.946Z,1.80
2018-06-29T17:51:12.515Z,2.10
2018-06-29T17:53:41.715Z,2.47
2018-06-29T17:56:10.902Z,2.30
2018-06-29T17:58:40.111Z,2.57
2018-06-29T18:01:09.300Z,2.47
2018-06-29T18:03:38.526Z,2.90
2018-06-29T18:06:07.741Z,2.60
2018-06-29T18:08:36.906Z,2.33
2018-06-29T18:11:06.173Z,2.60
2018-06-29T18:13:35.435Z,2.40
2018-06-29T18:16:04.681Z,2.17
2018-06-29T18:18:33.958Z,2.50
2018-06-29T18:21:03.227Z,2.17
2018-06-29T18:23:32.741Z,2.83
2018-06-29T18:26:02.024Z,2.30
2018-06-29T18:28:31.209Z,2.37
2018-06-29T18:31:00.391Z,2.10
2018-06-29T18:33:29.559Z,2.30
2018-06-29T18:35:58.744Z,2.63
2018-06-29T18:38:27.955Z,2.47
2018-06-29T18:40:57.147Z,2.10
2018-06-29T18:43:26.415Z,2.23
2018-06-29T18:45:55.602Z,2.07
2018-06-29T18:48:24.877Z,1.90
2018-06-29T18:50:54.158Z,2.20
2018-06-29T18:53:23.438Z,2.20
2018-06-29T18:55:52.632Z,2.20
2018-06-29T18:58:21.824Z,2.10
2018-06-29T19:00:51.039Z,2.07
2018-06-29T19:03:20.264Z,2.40
2018-06-29T19:05:49.650Z,1.97
2018-06-29T19:08:18.862Z,2.00
2018-06-29T19:10:48.066Z,2.07
2018-06-29T19:13:17.354Z,1.90
2018-06-29T19:15:46.535Z,2.30
2018-06-29T19:18:16.254Z,2.33
2018-06-29T19:20:45.523Z,2.37
2018-06-29T19:23:14.645Z,2.30
2018-06-29T19:25:43.842Z,2.27
2018-06-29T19:28:13.398Z,2.13
2018-06-29T19:30:42.788Z,2.30
2018-06-29T19:33:11.964Z,2.00
2018-06-29T19:35:41.197Z,2.30
2018-06-29T19:38:10.579Z,2.30
2018-06-29T19:40:39.771Z,2.10
2018-06-29T19:43:08.938Z,2.40
2018-06-29T19:45:38.262Z,2.10
2018-06-29T19:48:07.415Z,2.30
2018-06-29T19:50:36.615Z,2.43
2018-06-29T19:53:06.310Z,2.23
2018-06-29T19:55:35.496Z,2.93
2018-06-29T19:58:04.752Z,2.80
2018-06-29T20:00:33.946Z,2.53
2018-06-29T20:03:03.159Z,2.47
2018-06-29T20:05:32.324Z,2.40
2018-06-29T20:08:01.583Z,2.80
2018-06-29T20:10:30.815Z,2.90
2018-06-29T20:13:00.028Z,2.77
2018-06-29T20:15:29.238Z,2.70
2018-06-29T20:17:58.570Z,2.80
2018-06-29T20:20:27.949Z,2.77
2018-06-29T20:22:57.008Z,2.80
2018-06-29T20:25:26.476Z,3.50
2018-06-29T20:27:55.798Z,2.43
2018-06-29T20:30:25.071Z,2.77
2018-06-29T20:32:54.782Z,3.10
2018-06-29T20:35:23.927Z,3.10
2018-06-29T20:37:53.096Z,3.30
2018-06-29T20:40:22.262Z,3.60
2018-06-29T20:42:51.604Z,3.37
2018-06-29T20:45:20.830Z,3.70
2018-06-29T20:47:50.035Z,3.70
2018-06-29T20:50:19.359Z,3.50
2018-06-29T20:52:48.559Z,3.60
2018-06-29T20:55:17.847Z,3.50
2018-06-29T20:57:47.122Z,3.77
2018-06-29T21:00:16.782Z,3.80
2018-06-29T21:02:46.058Z,3.43
2018-06-29T21:05:16.562Z,3.50
2018-06-29T21:07:45.807Z,4.30
2018-06-29T21:10:15.026Z,4.00
2018-06-29T21:12:44.682Z,4.13
2018-06-29T21:15:13.894Z,4.50
2018-06-29T21:17:43.182Z,4.77
2018-06-29T21:20:12.730Z,4.10
2018-06-29T21:22:42.202Z,4.70
2018-06-29T21:25:11.487Z,4.00
2018-06-29T21:27:40.663Z,4.40
2018-06-29T21:30:09.875Z,4.57
2018-06-29T21:32:39.202Z,4.20
2018-06-29T21:35:08.446Z,4.73
2018-06-29T21:37:37.650Z,4.30
2018-06-29T21:40:06.851Z,4.40
2018-06-29T21:42:36.102Z,4.13
2018-06-29T21:45:05.334Z,4.80
2018-06-29T21:47:34.535Z,4.57
2018-06-29T21:50:03.802Z,4.60
2018-06-29T21:52:33.029Z,4.93
2018-06-29T21:55:02.260Z,4.00
2018-06-29T21:57:31.461Z,4.60
2018-06-29T22:00:00.692Z,4.70
2018-06-29T22:02:29.861Z,5.60
2018-06-29T22:04:59.223Z,4.53
2018-06-29T22:07:28.451Z,4.53
2018-06-29T22:09:57.618Z,4.37
2018-06-29T22:12:26.811Z,4.83
2018-06-29T22:14:56.190Z,4.77
2018-06-29T22:17:25.350Z,5.03
2018-06-29T22:19:54.516Z,4.57
2018-06-29T22:22:23.694Z,4.20
2018-06-29T22:24:52.918Z,4.07
2018-06-29T22:27:22.180Z,4.00
2018-06-29T22:29:51.405Z,4.67
2018-06-29T22:32:20.629Z,4.40
2018-06-29T22:34:49.842Z,4.80
2018-06-29T22:37:19.031Z,4.60
2018-06-29T22:39:48.279Z,4.03
2018-06-29T22:42:17.452Z,4.07
2018-06-29T22:44:46.625Z,4.30
2018-06-29T22:47:16.258Z,4.33
2018-06-29T22:49:45.442Z,4.23
2018-06-29T22:52:14.910Z,4.33
2018-06-29T22:54:45.390Z,4.50
2018-06-29T22:57:14.629Z,4.70
2018-06-29T22:59:43.890Z,4.93
2018-06-29T23:02:13.131Z,4.57
2018-06-29T23:04:42.366Z,4.50
2018-06-29T23:07:11.622Z,3.80
2018-06-29T23:09:40.822Z,4.20
2018-06-29T23:12:10.507Z,4.47
2018-06-29T23:14:39.744Z,4.40
2018-06-29T23:17:08.929Z,4.70
2018-06-29T23:19:38.530Z,4.47
2018-06-29T23:22:07.919Z,4.73
2018-06-29T23:24:37.513Z,4.70
2018-06-29T23:27:06.791Z,4.20
2018-06-29T23:29:36.078Z,4.50
2018-06-29T23:32:05.252Z,4.40
2018-06-29T23:34:34.486Z,3.80
2018-06-29T23:37:03.735Z,4.70
2018-06-29T23:39:33.207Z,4.37
2018-06-29T23:42:02.477Z,4.20
2018-06-29T23:44:31.833Z,4.53
2018-06-29T23:47:00.992Z,4.43
2018-06-29T23:49:30.182Z,5.03
2018-06-29T23:52:00.428Z,4.77
2018-06-29T23:54:29.777Z,5.17
2018-06-29T23:56:59.066Z,4.47
2018-06-29T23:59:28.511Z,4.87
